Terminal Aerodrome Forecast
Issued by NWS Wilmington, OH

Current Version | Previous Version | Graphics & Text | Print | Product List | Glossary On
Versions: 1 2 3 4 5 6 7 8 9 10 11 12 13 14 15 16 17 18 19 20 21 22 23 24 25 26
000
FTUS41 KILN 191141
TAFCVG
TAF
KCVG 191141Z 1912/2018 27008KT 6SM BR OVC006
     FM191500 25004KT P6SM OVC007
     FM191600 25004KT P6SM OVC010
     FM191900 24004KT P6SM BKN025
     FM192000 24004KT P6SM FEW025 SCT060
     FM200600 VRB03KT P6SM SCT080
     FM201100 VRB03KT P6SM BKN045
     FM201600 12004KT P6SM SCT080=

USA.gov is the U.S. government's official web portal to all federal, state and local government web resources and services.